Time;durP1;ratioP1;P1;durP2;ratioP2;P2;SDS_P1;SDS_P2;PMS_P1;PMS_P2;Temp;Humidity;BMP_temperature;BMP_pressure;BME280_temperature;BME280_humidity;BME280_pressure;Samples;Min_cycle;Max_cycle;Signal;HPM_P1;HPM_P2
2022/07/15 00:01:47;;;;;;;7.78;2.13;;;;;;;17.71;69.44;98296.81;5011146;28;20080;-68
2022/07/15 00:04:15;;;;;;;3.80;2.28;;;;;;;17.68;69.48;98292.78;5050211;28;20530;-68
2022/07/15 00:06:42;;;;;;;3.17;2.30;;;;;;;17.69;69.18;98296.41;5031563;28;20053;-68
2022/07/15 00:09:09;;;;;;;5.40;2.10;;;;;;;17.65;69.26;98292.81;5033011;28;20053;-65
2022/07/15 00:11:36;;;;;;;4.50;2.58;;;;;;;17.67;69.02;98301.63;5032788;28;20107;-65
2022/07/15 00:14:03;;;;;;;5.57;2.10;;;;;;;17.59;69.06;98294.47;5033811;28;20041;-68
2022/07/15 00:16:30;;;;;;;5.00;2.30;;;;;;;17.57;69.45;98296.88;5032804;28;20119;-67
2022/07/15 00:18:58;;;;;;;6.75;2.50;;;;;;;17.60;69.16;98293.22;5032926;28;20045;-65
2022/07/15 00:21:25;;;;;;;6.80;2.47;;;;;;;17.63;68.99;98296.03;5032728;28;20095;-65
2022/07/15 00:23:52;;;;;;;5.88;1.98;;;;;;;17.62;68.89;98293.63;5032852;28;20485;-67
2022/07/15 00:26:19;;;;;;;3.22;2.40;;;;;;;17.66;68.96;98297.22;5032973;28;20049;-67
2022/07/15 00:28:46;;;;;;;3.45;2.10;;;;;;;17.66;68.88;98303.66;5033120;28;20568;-67
2022/07/15 00:31:13;;;;;;;2.95;1.80;;;;;;;17.64;68.74;98297.63;5032453;28;20508;-69
2022/07/15 00:33:40;;;;;;;4.95;2.35;;;;;;;17.60;68.88;98296.03;5032953;28;20139;-70
2022/07/15 00:36:07;;;;;;;5.40;2.22;;;;;;;17.57;68.97;98297.69;5035768;28;20049;-69
2022/07/15 00:38:34;;;;;;;5.22;2.00;;;;;;;17.54;68.94;98294.88;5052273;28;20503;-69
2022/07/15 00:41:01;;;;;;;4.85;2.47;;;;;;;17.50;69.04;98299.72;5052166;28;20053;-70
2022/07/15 00:43:28;;;;;;;2.50;1.70;;;;;;;17.46;69.28;98299.72;5052435;28;20048;-69
2022/07/15 00:45:55;;;;;;;4.07;2.30;;;;;;;17.48;69.09;98297.31;5052908;28;20070;-70
2022/07/15 00:48:22;;;;;;;5.70;2.45;;;;;;;17.53;69.11;98296.09;5052382;28;20080;-70
2022/07/15 00:50:49;;;;;;;3.15;2.15;;;;;;;17.51;68.93;98298.50;5052070;28;20140;-69
2022/07/15 00:53:19;;;;;;;3.45;2.05;;;;;;;17.54;69.03;98300.50;5052171;28;20071;-72
2022/07/15 00:55:47;;;;;;;3.35;2.20;;;;;;;17.54;69.28;98292.06;5032954;28;20061;-69
2022/07/15 00:58:20;;;;;;;3.47;2.22;;;;;;;17.56;69.09;98290.44;5033194;28;20042;-70
2022/07/15 01:00:48;;;;;;;3.75;2.25;;;;;;;17.52;69.09;98294.47;5032455;28;20381;-70
2022/07/15 01:03:17;;;;;;;2.78;1.92;;;;;;;17.45;69.36;98300.94;5032171;28;20079;-70
2022/07/15 01:05:46;;;;;;;3.22;2.17;;;;;;;17.36;69.44;98303.38;5047042;28;20546;-70
2022/07/15 01:08:14;;;;;;;5.45;2.30;;;;;;;17.25;69.83;98313.00;5052225;28;20504;-69
2022/07/15 01:10:41;;;;;;;4.28;2.10;;;;;;;17.21;70.03;98312.25;5052481;28;20048;-70
2022/07/15 01:13:08;;;;;;;4.45;2.25;;;;;;;17.18;70.48;98315.84;5052479;28;20151;-70
2022/07/15 01:15:35;;;;;;;5.70;2.53;;;;;;;17.15;70.54;98325.09;5037191;28;20053;-70
2022/07/15 01:18:03;;;;;;;3.55;2.05;;;;;;;17.13;70.33;98327.50;5032102;28;20045;-70
2022/07/15 01:20:39;;;;;;;3.85;2.35;;;;;;;17.12;70.61;98332.34;5034491;28;20046;-70
2022/07/15 01:23:06;;;;;;;8.23;1.92;;;;;;;17.09;70.62;98335.16;5034366;28;20056;-70
2022/07/15 01:25:33;;;;;;;11.00;3.65;;;;;;;17.08;70.68;98336.38;5036335;28;20099;-70
2022/07/15 01:28:00;;;;;;;5.82;2.20;;;;;;;17.08;70.92;98342.00;5035665;28;20049;-70
2022/07/15 01:30:27;;;;;;;3.38;1.92;;;;;;;17.02;71.01;98332.38;5035882;28;20504;-70
2022/07/15 01:32:55;;;;;;;6.47;2.20;;;;;;;16.99;71.23;98345.19;5035348;28;20071;-70
2022/07/15 01:35:22;;;;;;;3.45;2.53;;;;;;;16.98;71.09;98343.59;5035703;28;20059;-69
2022/07/15 01:37:49;;;;;;;3.33;2.20;;;;;;;16.98;71.28;98354.84;5052428;28;20080;-69
2022/07/15 01:40:16;;;;;;;2.70;2.13;;;;;;;17.01;71.45;98362.47;5055555;28;20127;-69
2022/07/15 01:42:43;;;;;;;3.53;2.22;;;;;;;17.01;71.50;98361.66;5055837;28;20094;-69
2022/07/15 01:45:11;;;;;;;3.10;2.17;;;;;;;16.97;71.48;98358.06;5055654;28;20144;-69
2022/07/15 01:47:46;;;;;;;4.75;2.28;;;;;;;17.01;71.34;98356.03;5049761;28;20053;-68
2022/07/15 01:50:14;;;;;;;3.20;1.88;;;;;;;17.01;71.68;98354.03;5035215;28;20427;-69
2022/07/15 01:52:41;;;;;;;5.43;2.40;;;;;;;17.02;71.96;98349.22;5035413;28;20045;-69
2022/07/15 01:55:09;;;;;;;3.33;2.10;;;;;;;16.98;71.74;98345.59;5035708;28;20045;-69
2022/07/15 01:57:36;;;;;;;2.90;2.10;;;;;;;16.97;71.50;98344.81;5035214;28;20049;-68
2022/07/15 02:00:08;;;;;;;5.90;2.00;;;;;;;16.99;71.51;98345.19;5035553;28;20136;-68
2022/07/15 02:02:35;;;;;;;4.43;2.08;;;;;;;16.93;71.56;98340.41;5035190;28;20140;-68
2022/07/15 02:05:03;;;;;;;3.20;2.00;;;;;;;16.89;71.74;98351.66;5035110;28;20055;-68
2022/07/15 02:07:30;;;;;;;4.63;1.90;;;;;;;16.92;71.55;98344.41;5035105;28;20463;-70
2022/07/15 02:09:56;;;;;;;3.85;2.13;;;;;;;16.92;71.54;98355.66;5035006;28;20054;-69
2022/07/15 02:12:25;;;;;;;5.47;2.45;;;;;;;16.92;71.35;98361.25;5034753;28;20049;-69
2022/07/15 02:14:52;;;;;;;3.80;1.95;;;;;;;16.94;71.33;98358.88;5035288;28;20052;-66
2022/07/15 02:17:19;;;;;;;6.18;3.00;;;;;;;16.94;71.40;98359.69;5035026;28;20564;-66
2022/07/15 02:19:46;;;;;;;4.35;1.83;;;;;;;16.90;71.22;98360.88;5034715;28;20049;-67
2022/07/15 02:22:13;;;;;;;2.70;2.00;;;;;;;16.85;71.32;98361.28;5034538;28;20053;-67
2022/07/15 02:24:40;;;;;;;3.63;1.98;;;;;;;16.80;71.07;98367.28;5035064;28;20099;-66
2022/07/15 02:27:07;;;;;;;3.08;1.85;;;;;;;16.83;71.22;98372.91;5035089;28;20132;-66
2022/07/15 02:29:34;;;;;;;3.50;2.00;;;;;;;16.82;70.90;98373.31;5034624;28;20057;-66
2022/07/15 02:32:01;;;;;;;4.07;1.95;;;;;;;16.83;70.66;98363.69;5034772;28;20049;-66
2022/07/15 02:34:28;;;;;;;3.40;1.70;;;;;;;16.87;70.67;98364.50;5034897;28;20045;-66
2022/07/15 02:36:55;;;;;;;6.55;1.60;;;;;;;16.88;70.58;98368.91;5042824;28;20053;-66
2022/07/15 02:39:22;;;;;;;4.20;2.10;;;;;;;16.85;70.32;98373.31;5054554;28;20052;-67
2022/07/15 02:41:49;;;;;;;3.80;1.70;;;;;;;16.86;70.07;98365.69;5054126;28;20513;-67
2022/07/15 02:44:16;;;;;;;4.13;1.95;;;;;;;16.88;70.13;98366.09;5054513;28;20508;-68
2022/07/15 02:46:43;;;;;;;2.53;1.63;;;;;;;16.89;70.20;98370.50;5054427;28;20049;-69
2022/07/15 02:49:11;;;;;;;4.15;1.70;;;;;;;16.91;69.90;98373.72;5054421;28;20053;-68
2022/07/15 02:51:38;;;;;;;6.05;2.05;;;;;;;16.91;69.90;98374.53;5048562;28;20052;-69
2022/07/15 02:54:04;;;;;;;6.70;1.50;;;;;;;16.95;69.93;98377.31;5034431;28;20132;-68
2022/07/15 02:56:31;;;;;;;2.90;1.85;;;;;;;16.95;69.73;98374.50;5035380;28;20050;-67
2022/07/15 02:58:58;;;;;;;4.57;1.65;;;;;;;16.97;69.73;98372.09;5034996;28;20057;-66
2022/07/15 03:01:25;;;;;;;3.47;1.77;;;;;;;17.00;69.83;98374.09;5034379;28;20481;-66
2022/07/15 03:03:53;;;;;;;2.83;1.60;;;;;;;17.06;69.30;98373.31;5034448;28;20097;-65
2022/07/15 03:06:20;;;;;;;5.38;1.80;;;;;;;17.09;69.47;98377.31;5034045;28;20049;-66
2022/07/15 03:08:47;;;;;;;2.95;1.70;;;;;;;17.15;69.04;98375.69;5034792;28;20420;-66
2022/07/15 03:11:14;;;;;;;7.65;2.05;;;;;;;17.21;68.96;98391.75;5053920;28;20045;-67
2022/07/15 03:13:42;;;;;;;3.17;1.65;;;;;;;17.30;68.95;98391.31;5053880;28;20427;-66
2022/07/15 03:16:09;;;;;;;3.17;1.90;;;;;;;17.45;68.35;98398.53;5053768;28;20049;-66
2022/07/15 03:18:36;;;;;;;2.85;1.63;;;;;;;17.58;67.93;98399.69;5054172;28;20103;-66
2022/07/15 03:21:03;;;;;;;3.90;1.88;;;;;;;17.61;67.62;98401.69;5053629;28;20136;-66
2022/07/15 03:23:30;;;;;;;4.97;2.20;;;;;;;17.60;67.90;98414.97;5054098;28;20056;-66
2022/07/15 03:25:57;;;;;;;3.22;1.80;;;;;;;17.62;67.59;98409.72;5047669;28;20045;-67
2022/07/15 03:28:24;;;;;;;3.65;1.60;;;;;;;17.60;67.38;98405.72;5033419;28;20049;-67
2022/07/15 03:30:51;;;;;;;5.85;1.42;;;;;;;17.54;67.80;98401.72;5033998;28;20049;-67
2022/07/15 03:33:18;;;;;;;2.75;1.70;;;;;;;17.47;67.83;98405.34;5032704;28;20056;-67
2022/07/15 03:35:45;;;;;;;3.53;1.80;;;;;;;17.40;67.99;98398.91;5033349;28;20132;-67
2022/07/15 03:38:12;;;;;;;3.22;1.80;;;;;;;17.38;68.23;98412.59;5033405;28;20061;-65
2022/07/15 03:40:39;;;;;;;2.97;1.73;;;;;;;17.39;67.84;98419.81;5032901;28;20046;-65
2022/07/15 03:43:06;;;;;;;3.15;1.58;;;;;;;17.38;68.04;98427.44;5050483;28;20140;-66
2022/07/15 03:45:33;;;;;;;4.20;1.60;;;;;;;17.35;67.97;98424.66;5053545;28;20607;-67
2022/07/15 03:48:00;;;;;;;4.70;1.75;;;;;;;17.31;68.10;98423.84;5045486;28;20053;-67
2022/07/15 03:50:27;;;;;;;2.95;1.67;;;;;;;17.46;67.94;98419.81;5032228;28;20053;-66
2022/07/15 03:52:54;;;;;;;4.63;1.60;;;;;;;17.65;67.47;98416.56;5033050;28;20156;-69
2022/07/15 03:55:21;;;;;;;3.65;1.48;;;;;;;17.78;66.97;98418.53;5033290;28;20568;-68
2022/07/15 03:57:48;;;;;;;4.78;1.75;;;;;;;17.89;66.67;98416.47;5032877;28;20135;-68
2022/07/15 04:00:15;;;;;;;3.47;1.80;;;;;;;17.91;66.49;98414.06;5033509;28;20053;-68
2022/07/15 04:02:42;;;;;;;2.88;1.70;;;;;;;17.96;66.39;98424.06;5033401;28;20064;-69
2022/07/15 04:05:14;;;;;;;3.38;1.75;;;;;;;18.04;66.09;98434.09;5033378;28;20151;-69
2022/07/15 04:07:41;;;;;;;3.47;1.92;;;;;;;18.07;65.92;98433.28;5032982;28;20052;-68
2022/07/15 04:10:08;;;;;;;11.75;2.65;;;;;;;18.12;65.74;98421.63;5044878;28;20049;-69
2022/07/15 04:12:36;;;;;;;2.23;1.57;;;;;;;18.17;65.50;98421.16;5052857;28;20056;-68
2022/07/15 04:15:10;;;;;;;4.82;1.83;;;;;;;18.16;65.60;98428.81;5049067;28;20049;-68
2022/07/15 04:17:37;;;;;;;2.63;1.77;;;;;;;18.26;65.51;98429.19;5032590;28;20412;-68
2022/07/15 04:20:05;;;;;;;2.63;1.60;;;;;;;18.37;65.34;98441.16;5033099;28;20107;-68
2022/07/15 04:22:41;;;;;;;5.10;1.70;;;;;;;18.50;65.17;98443.13;5032511;28;20047;-68
2022/07/15 04:25:12;;;;;;;2.90;1.90;;;;;;;18.63;64.73;98454.72;5033009;28;20056;-68
2022/07/15 04:27:39;;;;;;;2.45;1.80;;;;;;;18.78;64.49;98451.41;5032496;28;20481;-68
2022/07/15 04:30:07;;;;;;;7.53;2.00;;;;;;;18.96;64.01;98457.72;5032691;28;20453;-69
2022/07/15 04:32:34;;;;;;;3.05;1.60;;;;;;;19.03;63.36;98457.66;5042755;28;20052;-70
2022/07/15 04:35:02;;;;;;;3.95;1.48;;;;;;;19.08;63.35;98462.84;5052576;28;20216;-68
2022/07/15 04:37:29;;;;;;;3.55;1.60;;;;;;;19.14;62.96;98469.66;5044863;28;20471;-68
2022/07/15 04:39:56;;;;;;;4.45;1.50;;;;;;;19.24;62.80;98480.03;5032593;28;20076;-68
2022/07/15 04:42:24;;;;;;;4.22;1.58;;;;;;;19.40;62.36;98477.53;5032065;28;20509;-67
2022/07/15 04:44:50;;;;;;;3.80;1.35;;;;;;;19.58;61.77;98478.16;5032363;28;20049;-68
2022/07/15 04:47:17;;;;;;;2.35;1.38;;;;;;;19.73;61.53;98476.78;5032618;28;20509;-68
2022/07/15 04:52:30;;;;;;;1.83;1.30;;;;;;;20.10;60.57;98486.47;5032747;28;20073;-68
2022/07/15 04:54:57;;;;;;;2.20;1.50;;;;;;;20.24;59.82;98487.09;5036570;28;20493;-68
2022/07/15 04:57:24;;;;;;;3.47;1.48;;;;;;;20.33;59.06;98495.06;5036561;28;20140;-68
2022/07/15 04:59:51;;;;;;;2.40;1.35;;;;;;;20.50;58.68;98486.38;5036439;28;20516;-68
2022/07/15 05:02:18;;;;;;;1.83;1.35;;;;;;;20.90;57.51;98490.25;5036219;28;20053;-68
2022/07/15 05:04:46;;;;;;;3.33;1.35;;;;;;;21.33;56.54;98494.03;5035897;28;20057;-66
2022/07/15 05:07:13;;;;;;;2.10;1.38;;;;;;;21.33;56.33;98496.88;5035993;28;20123;-66
2022/07/15 05:09:40;;;;;;;2.67;1.42;;;;;;;21.25;56.77;98489.72;5044207;28;20049;-66
2022/07/15 05:12:07;;;;;;;7.32;1.63;;;;;;;21.21;56.52;98486.97;5056045;28;20128;-66
2022/07/15 05:14:34;;;;;;;2.50;1.20;;;;;;;21.21;56.57;98472.00;5056177;28;20483;-66
2022/07/15 05:17:01;;;;;;;4.93;1.50;;;;;;;21.31;56.35;98465.34;5037861;28;20048;-67
2022/07/15 05:19:28;;;;;;;2.28;1.15;;;;;;;21.49;55.63;98463.03;5035975;28;20528;-68
2022/07/15 05:21:55;;;;;;;4.40;1.10;;;;;;;21.65;55.27;98460.31;5035868;28;20045;-70
2022/07/15 05:24:22;;;;;;;2.00;1.17;;;;;;;21.84;54.63;98453.91;5036065;28;20397;-69
2022/07/15 05:26:54;;;;;;;2.60;1.25;;;;;;;21.96;54.40;98455.31;5035758;28;20050;-68
2022/07/15 05:29:21;;;;;;;4.82;1.20;;;;;;;22.14;54.09;98456.53;5036107;28;20049;-69
2022/07/15 05:31:49;;;;;;;2.70;1.30;;;;;;;22.26;53.62;98458.72;5035651;28;20087;-70
2022/07/15 05:34:16;;;;;;;2.58;1.00;;;;;;;22.42;53.21;98453.13;5035900;28;20132;-67
2022/07/15 05:36:44;;;;;;;4.68;1.15;;;;;;;22.56;52.93;98461.34;5035552;28;20151;-67
2022/07/15 05:39:11;;;;;;;3.88;1.50;;;;;;;22.67;52.57;98453.41;5035535;28;20057;-67
2022/07/15 05:41:37;;;;;;;8.52;1.30;;;;;;;22.86;52.25;98458.22;5035594;28;20052;-66
2022/07/15 05:44:10;;;;;;;1.90;1.25;;;;;;;23.08;50.89;98453.66;5035861;28;20053;-66
2022/07/15 05:46:36;;;;;;;1.50;1.10;;;;;;;23.33;50.51;98456.69;5035396;28;20456;-67
2022/07/15 05:49:04;;;;;;;8.25;1.10;;;;;;;23.57;49.70;98456.50;5035360;28;20095;-67
2022/07/15 05:51:31;;;;;;;6.15;1.40;;;;;;;23.60;49.59;98458.44;5035299;28;20547;-67
2022/07/15 05:53:57;;;;;;;2.17;1.15;;;;;;;23.84;48.95;98463.47;5035305;28;20052;-68
2022/07/15 05:56:25;;;;;;;6.70;1.30;;;;;;;24.02;48.73;98465.84;5035101;28;20049;-68
2022/07/15 05:58:54;;;;;;;5.50;1.95;;;;;;;24.24;48.22;98467.63;5035385;28;20412;-68
2022/07/15 06:01:22;;;;;;;5.00;1.40;;;;;;;24.54;47.12;98464.31;5035239;28;20053;-67
2022/07/15 06:03:49;;;;;;;2.53;1.07;;;;;;;24.78;46.89;98462.00;5034955;28;20151;-67
2022/07/15 06:06:16;;;;;;;4.60;1.33;;;;;;;25.09;45.32;98454.47;5034306;28;20091;-67
2022/07/15 06:08:43;;;;;;;3.78;1.10;;;;;;;25.79;43.79;98457.81;5035393;28;20140;-68
2022/07/15 06:11:11;;;;;;;4.18;0.90;;;;;;;26.51;42.45;98446.22;5055058;28;20072;-68
2022/07/15 06:13:39;;;;;;;1.63;1.20;;;;;;;28.22;38.98;98451.75;5055478;28;20088;-69
2022/07/15 06:16:09;;;;;;;3.95;1.02;;;;;;;31.30;33.07;98442.84;5055114;28;20059;-69
2022/07/15 06:18:37;;;;;;;4.10;1.05;;;;;;;32.53;30.08;98453.44;5054721;28;20053;-69
2022/07/15 06:21:04;;;;;;;6.77;1.10;;;;;;;33.71;27.77;98443.22;5054666;28;20079;-69
2022/07/15 06:23:33;;;;;;;3.33;1.40;;;;;;;33.73;27.60;98451.34;5054379;28;20057;-69
2022/07/15 06:26:00;;;;;;;2.50;1.17;;;;;;;33.14;28.18;98454.06;5054577;28;20356;-68
2022/07/15 06:28:27;;;;;;;3.47;1.23;;;;;;;32.52;28.35;98459.69;5054554;28;20103;-68
2022/07/15 06:30:54;;;;;;;2.85;1.10;;;;;;;31.26;29.91;98445.09;5054509;28;20055;-68
2022/07/15 06:33:24;;;;;;;7.53;1.20;;;;;;;30.50;31.17;98445.28;5054718;28;20057;-68
2022/07/15 06:35:51;;;;;;;1.73;1.00;;;;;;;28.90;33.42;98436.72;5054061;28;20053;-68
2022/07/15 06:38:18;;;;;;;2.38;1.27;;;;;;;27.64;36.04;98440.41;5054326;28;20056;-68
2022/07/15 06:40:45;;;;;;;3.40;1.23;;;;;;;27.19;36.92;98445.97;5054323;28;20131;-68
2022/07/15 06:43:12;;;;;;;3.65;1.30;;;;;;;27.47;36.33;98450.50;5050118;28;20045;-69
2022/07/15 06:45:39;;;;;;;4.25;1.35;;;;;;;27.78;36.04;98454.09;5034502;28;20080;-69
2022/07/15 06:48:06;;;;;;;2.28;1.30;;;;;;;27.62;36.19;98442.94;5034106;28;20057;-69
2022/07/15 06:50:34;;;;;;;3.03;1.30;;;;;;;27.46;36.16;98460.38;5034268;28;20053;-69
2022/07/15 06:53:01;;;;;;;10.43;1.67;;;;;;;27.58;36.35;98448.00;5033856;28;20423;-69
2022/07/15 06:55:28;;;;;;;5.45;1.90;;;;;;;27.97;36.00;98454.91;5034253;28;20061;-70
2022/07/15 06:57:55;;;;;;;3.45;1.60;;;;;;;30.81;31.67;98469.41;5033775;28;20053;-70
2022/07/15 07:00:22;;;;;;;3.83;1.50;;;;;;;35.40;24.78;98466.63;5050567;28;20052;-69
2022/07/15 07:02:49;;;;;;;5.10;1.60;;;;;;;38.67;20.93;98463.91;5053993;28;20454;-69
2022/07/15 07:05:16;;;;;;;4.47;1.58;;;;;;;41.75;18.13;98473.66;5053899;28;20057;-69
2022/07/15 07:07:43;;;;;;;4.57;2.30;;;;;;;44.07;15.88;98463.53;5053657;28;20508;-70
2022/07/15 07:10:10;;;;;;;17.58;7.45;;;;;;;44.94;15.25;98469.56;5041213;28;20051;-69
2022/07/15 07:12:37;;;;;;;2.42;1.48;;;;;;;45.54;14.35;98478.84;5033875;28;20045;-70
2022/07/15 07:15:07;;;;;;;3.03;1.40;;;;;;;46.74;13.40;98482.88;5034167;28;20099;-70
2022/07/15 07:17:34;;;;;;;2.17;1.35;;;;;;;46.97;12.70;98482.59;5032455;28;20057;-70
2022/07/15 07:20:01;;;;;;;5.30;1.55;;;;;;;46.26;13.47;98475.75;5034110;28;20072;-70
2022/07/15 07:22:29;;;;;;;2.42;1.40;;;;;;;47.94;12.12;98488.47;5033533;28;20039;-70
2022/07/15 07:24:57;;;;;;;4.20;1.27;;;;;;;44.91;14.34;98477.41;5033721;28;20067;-68
2022/07/15 07:27:23;;;;;;;;;;;;;;;44.37;14.67;98484.03;5034011;28;20137;-69
2022/07/15 07:29:50;;;;;;;4.80;1.67;;;;;;;47.16;12.23;98489.41;5033731;28;19933;-69
2022/07/15 07:32:17;;;;;;;7.10;1.65;;;;;;;49.05;11.21;98481.06;5033579;28;20280;-69
2022/07/15 07:34:44;;;;;;;8.47;1.90;;;;;;;50.81;10.22;98487.28;5031917;28;20152;-69
2022/07/15 07:37:11;;;;;;;4.80;1.70;;;;;;;50.17;9.90;98491.63;5033098;28;20144;-69
2022/07/15 07:39:38;;;;;;;7.07;1.70;;;;;;;50.36;9.67;98500.41;5033286;28;20045;-69
2022/07/15 07:42:06;;;;;;;;;;;;;;;50.81;9.58;98505.84;5032489;28;20049;-70
2022/07/15 07:44:32;;;;;;;;;;;;;;;50.87;9.89;98502.50;5033986;28;19925;-69
2022/07/15 07:46:59;;;;;;;3.03;1.70;;;;;;;51.73;8.46;98499.50;5033229;28;19925;-69
2022/07/15 07:49:26;;;;;;;4.13;1.30;;;;;;;52.02;8.42;98494.00;5038418;28;20044;-70
2022/07/15 07:52:02;;;;;;;1.77;1.08;;;;;;;48.92;9.37;98478.56;5052902;28;20048;-70
2022/07/15 07:54:30;;;;;;;2.92;1.83;;;;;;;47.29;10.13;98479.41;5053336;28;20139;-69
2022/07/15 07:56:57;;;;;;;8.98;1.70;;;;;;;45.14;11.62;98475.19;5052739;28;20071;-70
2022/07/15 07:59:24;;;;;;;2.20;1.40;;;;;;;44.30;12.41;98478.94;5052979;28;20056;-70
2022/07/15 08:01:51;;;;;;;3.00;1.58;;;;;;;46.71;10.83;98483.28;5051417;28;20155;-70
2022/07/15 08:04:18;;;;;;;3.95;1.60;;;;;;;49.14;9.30;98469.22;5053039;28;20099;-70
2022/07/15 08:06:45;;;;;;;2.47;1.38;;;;;;;51.14;8.22;98469.53;5052861;28;20051;-70
2022/07/15 08:09:12;;;;;;;3.78;1.27;;;;;;;52.46;7.61;98464.13;5052582;28;20076;-68
2022/07/15 08:11:39;;;;;;;3.70;1.50;;;;;;;54.03;6.52;98461.53;5052864;28;20099;-69
2022/07/15 08:14:06;;;;;;;;;;;;;;;54.01;6.72;98452.50;5053346;28;20044;-69
2022/07/15 08:16:34;;;;;;;2.33;1.45;;;;;;;54.13;6.67;98456.16;5051128;28;20396;-69
2022/07/15 08:19:01;;;;;;;3.30;1.60;;;;;;;53.50;6.94;98451.03;5052866;28;20040;-70
2022/07/15 08:21:28;;;;;;;4.45;1.48;;;;;;;53.54;7.00;98463.19;5052626;28;20132;-70
2022/07/15 08:23:55;;;;;;;;;;;;;;;52.26;8.11;98483.66;5035189;28;20041;-70
2022/07/15 08:26:24;;;;;;;4.10;1.60;;;;;;;52.73;7.18;98492.53;5032606;28;20300;-69
2022/07/15 08:28:52;;;;;;;2.65;1.50;;;;;;;46.89;9.96;98482.69;5032348;28;20107;-69
2022/07/15 08:31:31;;;;;;;4.18;1.30;;;;;;;42.13;12.92;98480.63;5032546;28;20107;-69
2022/07/15 08:33:58;;;;;;;2.47;1.30;;;;;;;42.42;12.93;98479.28;5032218;28;20044;-70
2022/07/15 08:36:25;;;;;;;3.05;1.50;;;;;;;39.70;15.07;98485.31;5043815;28;20110;-69
2022/07/15 08:38:54;;;;;;;3.65;1.70;;;;;;;42.45;13.20;98483.97;5052937;28;20055;-68
2022/07/15 08:41:21;;;;;;;6.28;2.00;;;;;;;46.44;10.26;98489.06;5032724;28;20049;-68
2022/07/15 08:43:48;;;;;;;7.88;1.58;;;;;;;47.89;9.59;98490.31;5032462;28;20045;-69
2022/07/15 08:46:16;;;;;;;5.68;1.38;;;;;;;43.33;12.63;98486.31;5032251;28;20463;-69
2022/07/15 08:48:50;;;;;;;4.28;1.48;;;;;;;43.59;12.37;98496.91;5031219;28;20050;-67
2022/07/15 08:51:21;;;;;;;2.85;1.33;;;;;;;47.83;9.36;98498.66;5032347;28;20057;-68
2022/07/15 08:53:49;;;;;;;3.17;1.42;;;;;;;50.53;7.17;98497.94;5032477;28;20045;-68
2022/07/15 08:56:20;;;;;;;11.52;5.45;;;;;;;49.28;7.85;98505.72;5031314;28;20057;-67
2022/07/15 08:58:47;;;;;;;1.92;1.35;;;;;;;51.76;6.85;98510.09;5032385;28;20132;-68
2022/07/15 09:01:26;;;;;;;7.82;1.20;;;;;;;49.90;7.41;98508.88;5032527;28;20049;-69
2022/07/15 09:03:54;;;;;;;1.80;1.17;;;;;;;46.24;9.16;98502.81;5032311;28;20085;-69
2022/07/15 09:06:31;;;;;;;2.10;1.25;;;;;;;45.91;9.50;98510.13;5032486;28;20056;-68
2022/07/15 09:08:58;;;;;;;;;;;;;;;44.68;10.93;98509.00;5034937;28;20527;-69
2022/07/15 09:11:28;;;;;;;4.47;1.40;;;;;;;43.40;11.51;98519.91;5050201;28;19925;-68
2022/07/15 09:13:59;;;;;;;6.32;1.15;;;;;;;39.90;13.54;98517.53;5032457;28;20088;-69
2022/07/15 09:16:26;;;;;;;1.90;1.33;;;;;;;43.72;11.51;98502.59;5032150;28;20132;-69
2022/07/15 09:18:56;;;;;;;;;;;;;;;47.00;9.20;98511.59;5032440;28;20087;-70
2022/07/15 09:21:26;;;;;;;3.75;1.15;;;;;;;50.02;7.62;98512.72;5032582;28;19965;-69
2022/07/15 09:23:54;;;;;;;2.38;1.10;;;;;;;52.20;6.07;98524.84;5032416;28;20486;-69
2022/07/15 09:26:35;;;;;;;4.47;1.52;;;;;;;53.83;5.56;98526.66;5030430;28;20049;-68
2022/07/15 09:33:34;;;;;;;2.42;1.40;;;;;;;54.15;5.38;98530.69;5034339;28;20049;-71
2022/07/15 09:36:01;;;;;;;1.52;1.13;;;;;;;48.84;7.56;98508.25;5047335;28;20123;-69
2022/07/15 09:37:57;;;;;;;8.35;1.40;;;;;;;52.34;6.16;98522.81;5036191;28;20144;-69
2022/07/15 09:40:24;;;;;;;1.55;1.05;;;;;;;53.25;4.96;98520.28;5033084;28;20099;-68
2022/07/15 09:43:05;;;;;;;4.63;2.95;;;;;;;47.75;8.03;98504.69;5035686;28;20060;-70
2022/07/15 09:45:33;;;;;;;4.28;1.20;;;;;;;43.24;10.51;98512.47;5035737;28;20053;-69
2022/07/15 09:48:07;;;;;;;4.35;1.00;;;;;;;39.68;13.11;98505.47;5035175;28;20119;-68
2022/07/15 09:50:36;;;;;;;3.85;1.38;;;;;;;37.24;15.31;98497.34;5046022;28;20095;-68
2022/07/15 09:53:09;;;;;;;2.45;1.30;;;;;;;35.15;17.13;98496.59;5042543;28;21174;-68
2022/07/15 09:55:37;;;;;;;4.63;1.30;;;;;;;34.20;18.71;98496.78;5039807;28;20048;-69
2022/07/15 09:58:08;;;;;;;2.28;1.17;;;;;;;33.17;19.43;98505.72;5041213;28;20045;-68
2022/07/15 10:00:37;;;;;;;2.03;1.13;;;;;;;32.39;20.41;98506.16;5034483;28;20041;-70
2022/07/15 10:03:04;;;;;;;5.53;1.20;;;;;;;31.75;21.00;98503.41;5040640;28;20063;-70
2022/07/15 10:05:34;;;;;;;2.53;1.13;;;;;;;31.43;21.34;98497.91;5033521;28;20521;-69
2022/07/15 10:08:03;;;;;;;7.85;1.35;;;;;;;30.72;21.89;98523.22;5043969;28;20045;-70
2022/07/15 10:10:33;;;;;;;3.15;1.10;;;;;;;30.10;22.38;98509.69;5036652;28;20055;-71
2022/07/15 10:13:26;;;;;;;3.65;1.30;;;;;;;29.50;23.26;98520.53;5044906;28;20049;-70
2022/07/15 10:16:18;;;;;;;2.38;1.17;;;;;;;29.37;23.40;98510.56;5036365;28;20060;-70
2022/07/15 10:19:07;;;;;;;2.28;1.17;;;;;;;28.95;24.29;98513.34;5045936;28;20485;-69
2022/07/15 10:21:53;;;;;;;2.03;1.20;;;;;;;28.84;24.49;98513.09;5041879;28;20135;-68
2022/07/15 10:24:34;;;;;;;2.28;1.13;;;;;;;28.88;24.42;98510.03;5042606;28;20056;-70
2022/07/15 10:27:10;;;;;;;2.67;1.30;;;;;;;28.37;25.04;98518.50;5037694;28;20045;-69
2022/07/15 10:29:37;;;;;;;2.28;1.40;;;;;;;28.00;25.90;98511.94;5037956;28;20136;-72
2022/07/15 10:32:05;;;;;;;6.53;1.70;;;;;;;28.01;25.80;98507.81;5045338;28;20135;-69
2022/07/15 10:34:35;;;;;;;2.55;1.38;;;;;;;27.85;26.06;98513.00;5040612;28;20053;-70
2022/07/15 10:37:10;;;;;;;2.90;1.48;;;;;;;27.70;26.45;98514.88;5036567;28;20053;-69
2022/07/15 10:39:46;;;;;;;4.13;1.35;;;;;;;27.68;26.71;98511.72;5039778;28;20071;-70
2022/07/15 10:42:13;;;;;;;3.05;1.38;;;;;;;27.45;26.97;98506.53;5034817;28;20076;-69
2022/07/15 10:45:15;;;;;;;8.98;1.38;;;;;;;27.18;27.75;98507.22;5045492;28;20379;-70
2022/07/15 10:47:42;;;;;;;3.63;1.38;;;;;;;26.65;28.75;98514.97;5043862;28;20060;-69
2022/07/15 10:50:37;;;;;;;9.98;1.58;;;;;;;26.23;29.52;98522.22;5043779;28;20091;-68
2022/07/15 10:53:20;;;;;;;3.10;1.38;;;;;;;25.91;30.39;98539.63;5038765;28;20140;-69
2022/07/15 10:55:47;;;;;;;4.13;1.20;;;;;;;25.78;30.63;98536.00;5034386;28;20041;-70
2022/07/15 10:58:16;;;;;;;5.53;1.27;;;;;;;25.74;30.85;98538.19;5033747;28;20077;-70
2022/07/15 11:00:44;;;;;;;5.45;1.20;;;;;;;25.68;30.55;98534.31;5034806;28;20103;-70
2022/07/15 11:03:15;;;;;;;4.68;1.20;;;;;;;25.85;30.76;98532.94;5034014;28;20053;-70
2022/07/15 11:05:45;;;;;;;4.43;1.60;;;;;;;26.30;30.29;98539.09;5034135;28;20420;-70
2022/07/15 11:08:33;;;;;;;3.42;1.50;;;;;;;26.27;30.89;98534.31;5034783;28;20049;-69
2022/07/15 11:11:15;;;;;;;4.40;1.50;;;;;;;26.01;31.45;98532.78;5034641;28;20089;-69
2022/07/15 11:13:47;;;;;;;4.80;1.38;;;;;;;26.22;31.39;98532.03;5033924;28;20049;-69
2022/07/15 11:16:17;;;;;;;3.60;1.42;;;;;;;26.38;31.06;98540.41;5033789;28;20088;-70
2022/07/15 11:18:49;;;;;;;5.20;1.40;;;;;;;26.11;31.53;98536.53;5033877;28;20045;-68
2022/07/15 11:21:17;;;;;;;2.90;1.30;;;;;;;25.90;31.36;98535.19;5033349;28;20406;-69
2022/07/15 11:23:45;;;;;;;1.83;1.10;;;;;;;25.79;31.95;98543.31;5032185;28;20140;-70
2022/07/15 11:26:13;;;;;;;6.15;1.65;;;;;;;25.82;32.04;98531.00;5033506;28;20412;-69
2022/07/15 11:28:51;;;;;;;5.05;1.67;;;;;;;25.83;31.98;98543.16;5033819;28;20060;-69
2022/07/15 11:31:18;;;;;;;2.60;1.60;;;;;;;25.72;32.25;98540.69;5034225;28;20511;-68
2022/07/15 11:33:46;;;;;;;4.13;1.40;;;;;;;25.48;32.62;98542.31;5033743;28;20087;-69
2022/07/15 11:36:18;;;;;;;53.78;20.55;;;;;;;25.30;33.25;98550.59;5043228;28;20067;-69
2022/07/15 11:38:45;;;;;;;6.10;3.03;;;;;;;25.18;33.19;98551.38;5051015;28;20072;-68
2022/07/15 11:46:53;;;;;;;3.45;1.60;;;;;;;25.46;32.80;98556.19;5032670;28;20083;-66
2022/07/15 11:49:30;;;;;;;3.25;1.85;;;;;;;25.56;32.66;98551.41;5048522;28;20044;-70
2022/07/15 11:51:59;;;;;;;5.70;1.70;;;;;;;25.79;32.04;98551.88;5053300;28;20095;-68
2022/07/15 11:54:27;;;;;;;6.80;1.60;;;;;;;25.86;32.15;98554.47;5052861;28;20127;-68
2022/07/15 11:56:59;;;;;;;5.18;1.80;;;;;;;25.92;32.52;98560.38;5052835;28;20056;-67